Time;durP1;ratioP1;P1;durP2;ratioP2;P2;SDS_P1;SDS_P2;PMS_P1;PMS_P2;Temp;Humidity;BMP_temperature;BMP_pressure;BME280_temperature;BME280_humidity;BME280_pressure;Samples;Min_cycle;Max_cycle;Signal;HPM_P1;HPM_P2
2020/12/13 00:01:41;;;;;;;19.50;11.27;;;9.40;88.80;;;;;;5142563;27;20114;-73
2020/12/13 00:04:07;;;;;;;18.73;11.27;;;9.30;88.70;;;;;;5142639;27;20026;-74
2020/12/13 00:06:33;;;;;;;20.65;12.00;;;9.30;88.80;;;;;;5142702;27;20030;-74
2020/12/13 00:09:00;;;;;;;21.30;12.15;;;9.40;88.80;;;;;;5142766;27;20030;-74
2020/12/13 00:11:26;;;;;;;22.23;13.18;;;9.30;88.70;;;;;;5142484;27;20034;-74
2020/12/13 00:13:52;;;;;;;23.13;12.68;;;9.40;88.80;;;;;;5161538;27;20022;-74
2020/12/13 00:16:17;;;;;;;24.90;13.52;;;9.40;88.80;;;;;;5142563;27;20023;-74
2020/12/13 00:18:46;;;;;;;32.03;15.10;;;9.40;88.70;;;;;;5161170;27;20030;-74
2020/12/13 00:21:15;;;;;;;33.72;14.98;;;9.30;88.60;;;;;;5142502;27;20087;-73
2020/12/13 00:23:41;;;;;;;47.70;15.45;;;9.30;88.60;;;;;;5142502;27;20051;-74
2020/12/13 00:26:08;;;;;;;29.77;16.25;;;9.30;88.50;;;;;;5142279;27;20431;-74
2020/12/13 00:28:34;;;;;;;27.38;16.10;;;9.20;88.40;;;;;;5161281;27;20381;-73
2020/12/13 00:31:00;;;;;;;29.08;14.40;;;9.20;88.60;;;;;;5142211;27;20019;-75
2020/12/13 00:33:26;;;;;;;26.25;15.05;;;9.10;88.70;;;;;;5161351;27;20037;-74
2020/12/13 00:35:51;;;;;;;29.15;14.73;;;9.10;88.60;;;;;;5142333;27;20110;-73
2020/12/13 00:38:17;;;;;;;25.95;13.90;;;9.10;88.60;;;;;;5142305;27;20125;-74
2020/12/13 00:40:43;;;;;;;28.38;15.75;;;9.10;88.80;;;;;;5160758;27;20066;-73
2020/12/13 00:43:08;;;;;;;27.60;14.40;;;9.10;88.80;;;;;;5160732;27;20029;-74
2020/12/13 00:45:34;;;;;;;26.67;15.35;;;9.10;88.80;;;;;;5142302;27;20570;-73
2020/12/13 00:48:00;;;;;;;27.52;13.93;;;9.10;88.80;;;;;;5138757;27;20022;-73
2020/12/13 00:50:25;;;;;;;25.08;14.38;;;9.10;88.70;;;;;;5138786;27;20025;-74
2020/12/13 00:52:51;;;;;;;24.45;14.30;;;9.20;88.70;;;;;;5157592;27;20459;-74
2020/12/13 00:55:16;;;;;;;24.33;14.38;;;9.20;88.70;;;;;;5157554;27;20387;-73
2020/12/13 00:57:42;;;;;;;28.10;14.77;;;9.20;88.60;;;;;;5138854;27;20108;-74
2020/12/13 01:00:08;;;;;;;24.90;13.65;;;9.20;88.60;;;;;;5138904;27;20019;-74
2020/12/13 01:02:33;;;;;;;25.27;13.95;;;9.20;88.50;;;;;;5157582;27;20034;-73
2020/12/13 01:04:59;;;;;;;28.38;15.55;;;9.20;88.50;;;;;;5157435;27;20030;-74
2020/12/13 01:07:24;;;;;;;24.67;14.68;;;9.20;88.50;;;;;;5138583;27;20045;-74
2020/12/13 01:09:50;;;;;;;27.35;14.88;;;9.20;88.50;;;;;;5138528;27;20027;-73
2020/12/13 01:12:16;;;;;;;26.08;15.13;;;9.20;88.50;;;;;;5138473;27;20031;-74
2020/12/13 01:14:41;;;;;;;26.50;14.57;;;9.10;88.50;;;;;;5138550;27;20118;-74
2020/12/13 01:17:08;;;;;;;25.75;14.38;;;9.10;88.50;;;;;;5157095;27;20018;-73
2020/12/13 01:19:34;;;;;;;23.48;13.95;;;9.20;88.60;;;;;;5138476;27;20023;-74
2020/12/13 01:22:00;;;;;;;23.90;14.60;;;9.20;88.60;;;;;;5138388;27;20393;-73
2020/12/13 01:24:26;;;;;;;26.17;14.98;;;9.20;88.60;;;;;;5157238;27;20123;-74
2020/12/13 01:26:52;;;;;;;26.75;14.95;;;9.20;88.50;;;;;;5138326;27;20062;-73
2020/12/13 01:29:17;;;;;;;24.02;14.93;;;9.20;88.40;;;;;;5157174;27;20114;-73
2020/12/13 01:31:45;;;;;;;28.20;16.35;;;9.30;88.50;;;;;;5138122;27;20038;-73
2020/12/13 01:34:11;;;;;;;25.67;15.18;;;9.30;88.60;;;;;;5137949;27;20105;-73
2020/12/13 01:36:36;;;;;;;25.27;14.95;;;9.30;88.40;;;;;;5138094;27;20441;-74
2020/12/13 01:39:03;;;;;;;23.77;14.25;;;9.30;88.40;;;;;;5137977;27;20388;-73
2020/12/13 01:41:29;;;;;;;24.70;14.73;;;9.30;88.30;;;;;;5137786;27;20045;-74
2020/12/13 01:43:58;;;;;;;25.48;14.75;;;9.30;88.30;;;;;;5156386;27;20097;-74
2020/12/13 01:46:24;;;;;;;23.75;14.25;;;9.40;88.30;;;;;;5156408;27;20027;-73
2020/12/13 01:48:57;;;;;;;24.60;14.98;;;9.40;88.30;;;;;;5137795;27;20031;-74
2020/12/13 01:51:51;;;;;;;24.15;14.82;;;9.40;88.30;;;;;;5138519;27;20835;-74
2020/12/13 01:54:15;;;;;;;22.77;13.57;;;9.40;88.20;;;;;;5155791;27;20038;-74
2020/12/13 01:56:47;;;;;;;23.15;14.10;;;9.40;88.20;;;;;;5156158;27;20015;-74
2020/12/13 01:59:17;;;;;;;26.38;14.30;;;9.30;88.20;;;;;;5155906;27;20022;-74
2020/12/13 02:01:47;;;;;;;24.13;14.02;;;9.30;88.10;;;;;;5137574;27;20019;-73
2020/12/13 02:04:19;;;;;;;22.83;13.93;;;9.30;88.20;;;;;;5137387;27;20063;-73
2020/12/13 02:06:52;;;;;;;25.30;14.90;;;9.30;88.20;;;;;;5137490;27;20086;-74
2020/12/13 02:09:23;;;;;;;24.85;13.70;;;9.40;88.30;;;;;;5156149;27;20026;-74
2020/12/13 02:11:50;;;;;;;23.92;13.40;;;9.40;88.20;;;;;;5155862;27;20027;-73
2020/12/13 02:14:16;;;;;;;26.77;14.30;;;9.40;88.10;;;;;;5137327;27;20434;-73
2020/12/13 02:16:48;;;;;;;24.38;13.35;;;9.30;88.00;;;;;;5137279;27;20022;-72
2020/12/13 02:19:15;;;;;;;24.95;13.55;;;9.30;88.00;;;;;;5137225;27;20533;-73
2020/12/13 02:21:43;;;;;;;21.73;12.25;;;9.30;88.10;;;;;;5137311;27;20152;-74
2020/12/13 02:24:09;;;;;;;20.20;11.82;;;9.30;88.10;;;;;;5137156;27;20058;-73
2020/12/13 02:26:39;;;;;;;23.02;12.00;;;9.40;88.30;;;;;;5156072;27;20026;-74
2020/12/13 02:29:05;;;;;;;20.15;11.68;;;9.30;88.10;;;;;;5138534;27;20024;-75
2020/12/13 02:31:31;;;;;;;17.33;10.27;;;9.30;88.10;;;;;;5137886;27;20029;-74
2020/12/13 02:33:57;;;;;;;23.60;12.27;;;9.40;88.10;;;;;;5137126;27;20478;-73
2020/12/13 02:36:22;;;;;;;21.25;11.95;;;9.40;88.10;;;;;;5155862;27;20103;-73
2020/12/13 02:38:48;;;;;;;20.38;11.63;;;9.40;88.10;;;;;;5155515;27;20023;-73
2020/12/13 02:41:14;;;;;;;19.83;11.43;;;9.30;88.00;;;;;;5136727;27;20043;-74
2020/12/13 02:43:39;;;;;;;21.20;11.18;;;9.40;88.00;;;;;;5155302;27;20022;-73
2020/12/13 02:46:05;;;;;;;20.88;11.57;;;9.30;88.00;;;;;;5155731;27;20577;-74
2020/12/13 02:48:31;;;;;;;22.17;11.48;;;9.30;88.00;;;;;;5136763;27;20469;-73
2020/12/13 02:50:56;;;;;;;24.30;11.63;;;9.40;88.00;;;;;;5136709;27;20026;-74
2020/12/13 02:53:22;;;;;;;21.08;11.75;;;9.40;88.00;;;;;;5136659;27;20019;-73
2020/12/13 02:55:47;;;;;;;25.58;12.38;;;9.40;88.00;;;;;;5136714;27;20058;-74
2020/12/13 02:58:13;;;;;;;22.20;11.55;;;9.40;88.00;;;;;;5155141;27;20509;-74
2020/12/13 03:00:39;;;;;;;23.90;11.98;;;9.40;88.00;;;;;;5136566;27;20052;-74
2020/12/13 03:03:04;;;;;;;22.98;11.57;;;9.40;88.00;;;;;;5136514;27;20389;-74
2020/12/13 03:05:30;;;;;;;24.80;12.32;;;9.40;88.00;;;;;;5136554;27;20021;-74
2020/12/13 03:07:55;;;;;;;24.90;12.80;;;9.40;88.00;;;;;;5155032;27;20030;-73
2020/12/13 03:10:21;;;;;;;25.17;12.82;;;9.40;88.00;;;;;;5135646;27;20470;-74
2020/12/13 03:12:47;;;;;;;23.13;11.48;;;9.40;88.00;;;;;;5155180;27;20385;-74
2020/12/13 03:15:12;;;;;;;23.85;12.40;;;9.40;87.90;;;;;;5154827;27;20067;-73
2020/12/13 03:17:38;;;;;;;27.92;13.40;;;9.40;88.00;;;;;;5154822;27;20051;-74
2020/12/13 03:20:04;;;;;;;23.65;12.38;;;9.50;88.00;;;;;;5136097;27;20019;-74
2020/12/13 03:22:29;;;;;;;21.70;12.20;;;9.50;88.00;;;;;;5136055;27;20040;-74
2020/12/13 03:24:55;;;;;;;25.55;12.48;;;9.50;88.00;;;;;;5136199;27;20035;-74
2020/12/13 03:27:24;;;;;;;24.25;12.00;;;9.50;88.00;;;;;;5136195;27;20027;-73
2020/12/13 03:29:50;;;;;;;23.80;12.63;;;9.50;88.00;;;;;;5135885;27;20045;-73
2020/12/13 03:32:16;;;;;;;26.80;12.98;;;9.50;88.00;;;;;;5135917;27;20027;-73
2020/12/13 03:34:41;;;;;;;26.45;13.23;;;9.50;88.00;;;;;;5154677;27;20420;-74
2020/12/13 03:37:07;;;;;;;25.50;13.63;;;9.50;88.00;;;;;;5136193;27;20046;-74
2020/12/13 03:39:33;;;;;;;29.95;13.38;;;9.60;88.10;;;;;;5135814;27;20022;-74
2020/12/13 03:41:58;;;;;;;28.67;13.30;;;9.60;88.10;;;;;;5135921;27;20042;-74
2020/12/13 03:44:24;;;;;;;28.30;13.25;;;9.60;88.10;;;;;;5135903;27;20014;-74
2020/12/13 03:46:50;;;;;;;24.55;12.02;;;9.60;88.10;;;;;;5135976;27;20026;-74
2020/12/13 03:49:16;;;;;;;29.25;12.93;;;9.60;88.10;;;;;;5135971;27;20022;-74
2020/12/13 03:51:42;;;;;;;30.80;14.07;;;9.60;88.60;;;;;;5135860;27;20037;-75
2020/12/13 03:54:08;;;;;;;28.08;13.40;;;9.60;88.00;;;;;;5135883;27;20371;-74
2020/12/13 03:56:34;;;;;;;28.27;12.65;;;9.60;88.00;;;;;;5135924;27;20019;-74
2020/12/13 03:58:59;;;;;;;28.95;12.57;;;9.70;88.00;;;;;;5154488;27;20018;-74
2020/12/13 04:01:25;;;;;;;26.73;13.00;;;9.60;88.00;;;;;;5135820;27;20087;-73
2020/12/13 04:03:51;;;;;;;25.02;13.02;;;9.60;88.00;;;;;;5154425;27;20022;-74
2020/12/13 04:06:16;;;;;;;27.48;12.38;;;9.60;88.00;;;;;;5154528;27;20030;-74
2020/12/13 04:08:42;;;;;;;26.73;13.38;;;9.60;88.10;;;;;;5154629;27;20022;-73
2020/12/13 04:11:08;;;;;;;30.70;13.35;;;9.70;88.10;;;;;;5154550;27;20109;-74
2020/12/13 04:13:33;;;;;;;27.30;12.43;;;9.60;88.00;;;;;;5136030;27;20033;-74
2020/12/13 04:15:59;;;;;;;31.65;13.40;;;9.70;88.10;;;;;;5135985;27;20023;-73
2020/12/13 04:18:24;;;;;;;27.90;13.77;;;9.60;88.00;;;;;;5135934;27;20077;-73
2020/12/13 04:20:50;;;;;;;26.30;12.90;;;9.70;88.10;;;;;;5135918;27;20017;-74
2020/12/13 04:23:16;;;;;;;27.10;12.73;;;9.70;88.10;;;;;;5139198;27;20119;-73
2020/12/13 04:25:41;;;;;;;29.13;12.90;;;9.70;88.00;;;;;;5139779;27;20480;-74
2020/12/13 04:28:07;;;;;;;27.58;12.95;;;9.70;88.10;;;;;;5139730;27;20445;-74
2020/12/13 04:30:32;;;;;;;30.10;12.73;;;9.70;88.10;;;;;;5139827;27;20026;-74
2020/12/13 04:32:58;;;;;;;29.17;14.40;;;9.70;88.10;;;;;;5139357;27;20018;-73
2020/12/13 04:35:24;;;;;;;36.50;13.73;;;9.70;88.10;;;;;;5139473;27;20133;-73
2020/12/13 04:37:49;;;;;;;27.70;13.55;;;9.70;88.00;;;;;;5139275;27;20038;-74
2020/12/13 04:40:15;;;;;;;27.98;13.80;;;9.70;88.00;;;;;;5157731;27;20038;-74
2020/12/13 04:42:41;;;;;;;28.35;13.18;;;9.70;88.00;;;;;;5158057;27;20071;-74
2020/12/13 04:45:08;;;;;;;31.30;13.52;;;9.60;88.10;;;;;;5157684;27;20587;-73
2020/12/13 04:47:41;;;;;;;25.08;13.10;;;9.70;88.10;;;;;;5139051;27;20097;-74
2020/12/13 04:50:07;;;;;;;26.25;12.90;;;9.60;88.10;;;;;;5158070;27;20126;-74
2020/12/13 04:52:34;;;;;;;27.83;13.57;;;9.70;88.20;;;;;;5157561;27;20030;-73
2020/12/13 04:54:59;;;;;;;26.75;12.82;;;9.70;88.10;;;;;;5138967;27;20055;-74
2020/12/13 04:57:25;;;;;;;27.50;13.10;;;9.70;88.10;;;;;;5138965;27;20019;-73
2020/12/13 04:59:51;;;;;;;28.92;12.93;;;9.70;88.10;;;;;;5139003;27;20025;-73
2020/12/13 05:02:17;;;;;;;28.70;12.98;;;9.70;88.10;;;;;;5138963;27;20114;-73
2020/12/13 05:04:43;;;;;;;25.05;12.18;;;9.70;88.10;;;;;;5138851;27;20129;-74
2020/12/13 05:07:10;;;;;;;28.63;12.57;;;9.70;88.20;;;;;;5138707;27;20022;-74
2020/12/13 05:09:37;;;;;;;27.80;11.82;;;9.70;88.10;;;;;;5157787;27;20023;-74
2020/12/13 05:12:03;;;;;;;28.48;12.73;;;9.70;88.10;;;;;;5138458;27;20121;-74
2020/12/13 05:14:29;;;;;;;25.23;12.50;;;9.70;88.20;;;;;;5138428;27;20105;-73
2020/12/13 05:17:09;;;;;;;25.67;12.98;;;9.70;88.20;;;;;;5157461;27;20484;-74
2020/12/13 05:19:37;;;;;;;25.13;12.60;;;9.80;88.20;;;;;;5157044;27;20110;-73
2020/12/13 05:22:02;;;;;;;22.75;12.25;;;9.80;88.30;;;;;;5138399;27;20040;-74
2020/12/13 05:24:29;;;;;;;25.00;12.38;;;9.80;88.20;;;;;;5138491;27;20096;-73
2020/12/13 05:27:07;;;;;;;23.75;11.73;;;9.80;88.20;;;;;;5157106;27;20053;-73
2020/12/13 05:29:38;;;;;;;21.45;12.30;;;9.80;88.20;;;;;;5157318;27;20037;-74
2020/12/13 05:32:13;;;;;;;23.48;12.38;;;9.80;88.20;;;;;;5138173;27;20019;-74
2020/12/13 05:34:41;;;;;;;20.80;12.40;;;9.80;88.20;;;;;;5137453;27;20018;-74
2020/12/13 05:37:13;;;;;;;20.42;11.60;;;9.90;88.20;;;;;;5157216;27;20374;-73
2020/12/13 05:39:50;;;;;;;23.85;11.73;;;9.90;88.10;;;;;;5138479;27;20051;-73
2020/12/13 05:42:40;;;;;;;21.05;11.73;;;9.90;88.20;;;;;;5156519;27;20033;-74
2020/12/13 05:45:18;;;;;;;19.65;11.65;;;9.90;88.20;;;;;;5137832;27;20138;-73
2020/12/13 05:48:08;;;;;;;20.73;11.60;;;9.90;88.20;;;;;;5137957;27;20025;-74
2020/12/13 05:50:49;;;;;;;20.15;11.68;;;9.90;88.20;;;;;;5156232;27;20531;-74
2020/12/13 05:53:15;;;;;;;19.63;11.55;;;9.90;88.30;;;;;;5138566;27;20534;-73
2020/12/13 05:55:42;;;;;;;21.65;11.25;;;9.90;88.30;;;;;;5137852;27;20023;-74
2020/12/13 05:58:07;;;;;;;19.38;11.40;;;9.90;88.30;;;;;;5137722;27;20026;-74
2020/12/13 06:00:34;;;;;;;17.63;11.63;;;9.90;88.30;;;;;;5137810;27;20121;-74
2020/12/13 06:03:00;;;;;;;18.27;11.25;;;9.90;88.30;;;;;;5137689;27;20023;-74
2020/12/13 06:05:28;;;;;;;17.55;10.70;;;9.90;88.40;;;;;;5137639;27;20394;-73
2020/12/13 06:07:58;;;;;;;19.77;10.98;;;9.90;88.40;;;;;;5137695;27;20027;-74
2020/12/13 06:10:24;;;;;;;20.83;11.27;;;9.90;88.40;;;;;;5156476;27;20031;-74
2020/12/13 06:13:04;;;;;;;19.00;11.13;;;10.00;88.50;;;;;;5137518;27;20033;-74
2020/12/13 06:15:32;;;;;;;17.48;10.70;;;10.00;88.50;;;;;;5137412;27;20063;-73
2020/12/13 06:17:59;;;;;;;17.05;10.23;;;10.00;88.50;;;;;;5137255;27;20027;-73
2020/12/13 06:20:26;;;;;;;18.73;11.40;;;9.90;88.40;;;;;;5137299;27;20049;-74
2020/12/13 06:22:53;;;;;;;19.52;10.98;;;9.90;88.40;;;;;;5137233;27;20370;-74
2020/12/13 06:25:20;;;;;;;19.88;11.50;;;9.90;88.40;;;;;;5137377;27;20023;-74
2020/12/13 06:27:51;;;;;;;19.85;11.73;;;9.90;88.40;;;;;;5137397;27;20392;-73
2020/12/13 06:30:19;;;;;;;21.00;12.32;;;9.80;88.50;;;;;;5137395;27;20042;-74
2020/12/13 06:32:47;;;;;;;19.33;11.55;;;9.80;88.50;;;;;;5155912;27;20034;-74
2020/12/13 06:35:13;;;;;;;23.48;11.55;;;9.80;88.50;;;;;;5137048;27;20071;-73
2020/12/13 06:37:40;;;;;;;21.10;12.50;;;9.80;88.70;;;;;;5137016;27;20027;-74
2020/12/13 06:40:08;;;;;;;17.75;11.32;;;9.70;88.70;;;;;;5133388;27;20474;-74
2020/12/13 06:42:38;;;;;;;17.08;11.20;;;9.70;88.70;;;;;;5133270;27;20138;-74
2020/12/13 06:45:09;;;;;;;16.98;11.20;;;9.70;88.80;;;;;;5132325;27;20129;-74
2020/12/13 06:47:39;;;;;;;15.23;10.57;;;9.70;88.80;;;;;;5134423;27;20073;-73
2020/12/13 06:50:07;;;;;;;17.67;11.48;;;9.70;88.90;;;;;;5134378;27;20042;-73
2020/12/13 06:52:33;;;;;;;14.82;10.98;;;9.70;88.90;;;;;;5132994;27;20023;-74
2020/12/13 06:55:00;;;;;;;16.73;10.90;;;9.70;88.90;;;;;;5133114;27;20547;-74
2020/12/13 06:57:29;;;;;;;19.50;11.45;;;9.70;88.90;;;;;;5134504;27;20200;-73
2020/12/13 06:59:56;;;;;;;16.75;10.60;;;9.70;88.90;;;;;;5134545;27;20469;-73
2020/12/13 07:02:54;;;;;;;16.35;10.75;;;9.70;88.90;;;;;;5133027;27;20163;-74
2020/12/13 07:05:20;;;;;;;15.00;10.38;;;9.70;89.00;;;;;;5133007;27;20091;-74
2020/12/13 07:07:52;;;;;;;16.70;10.75;;;9.60;89.00;;;;;;5132940;27;20110;-73
2020/12/13 07:10:19;;;;;;;16.27;11.65;;;9.60;89.10;;;;;;5132801;27;20030;-74
2020/12/13 07:12:51;;;;;;;16.45;10.95;;;9.70;89.10;;;;;;5134105;27;20034;-73
2020/12/13 07:15:51;;;;;;;15.43;10.90;;;9.70;89.20;;;;;;5132848;27;20031;-74
2020/12/13 07:18:13;;;;;;;18.42;10.93;;;9.70;89.20;;;;;;5131699;27;20040;-73
2020/12/13 07:20:40;;;;;;;15.75;11.10;;;9.70;89.20;;;;;;5134551;27;20023;-74
2020/12/13 07:23:06;;;;;;;15.30;10.48;;;9.70;89.20;;;;;;5132644;27;20038;-74
2020/12/13 07:25:32;;;;;;;14.98;9.75;;;9.70;89.20;;;;;;5132824;27;20031;-73
2020/12/13 07:27:58;;;;;;;15.18;10.60;;;9.70;89.30;;;;;;5132793;27;20023;-74
2020/12/13 07:30:24;;;;;;;17.50;10.10;;;9.70;89.20;;;;;;5132574;27;20031;-74
2020/12/13 07:32:49;;;;;;;14.93;10.52;;;9.70;89.20;;;;;;5132552;27;20084;-74
2020/12/13 07:35:15;;;;;;;15.73;10.93;;;9.70;89.10;;;;;;5132548;28;20023;-73
2020/12/13 07:37:42;;;;;;;18.80;11.68;;;9.70;89.10;;;;;;5132578;28;20023;-73
2020/12/13 07:40:12;;;;;;;17.42;10.75;;;9.70;89.20;;;;;;5132431;28;20385;-74
2020/12/13 07:42:38;;;;;;;16.60;11.50;;;9.70;89.20;;;;;;5132381;28;20023;-74
2020/12/13 07:45:05;;;;;;;14.60;10.10;;;9.70;89.20;;;;;;5132361;28;20394;-73
2020/12/13 07:47:30;;;;;;;15.05;10.02;;;9.80;89.30;;;;;;5133832;27;20031;-73
2020/12/13 07:50:05;;;;;;;14.73;10.40;;;9.80;89.30;;;;;;5132440;28;20050;-73
2020/12/13 07:52:31;;;;;;;15.35;10.57;;;9.80;89.20;;;;;;5132442;28;20071;-74
2020/12/13 07:55:06;;;;;;;17.27;11.25;;;9.70;89.20;;;;;;5132420;28;20061;-74
2020/12/13 07:57:33;;;;;;;14.38;10.13;;;9.80;89.20;;;;;;5136109;27;20023;-74
2020/12/13 08:00:08;;;;;;;17.25;11.30;;;9.70;89.20;;;;;;5136462;27;20074;-74
2020/12/13 08:02:34;;;;;;;16.70;10.73;;;9.80;89.20;;;;;;5136383;27;20027;-74
2020/12/13 08:05:00;;;;;;;15.80;11.32;;;9.80;89.20;;;;;;5137504;27;20023;-74
2020/12/13 08:07:26;;;;;;;14.68;10.52;;;9.80;89.20;;;;;;5136223;27;20023;-74
2020/12/13 08:09:57;;;;;;;14.57;10.10;;;9.80;89.20;;;;;;5136231;27;20022;-74
2020/12/13 08:12:37;;;;;;;14.07;10.05;;;9.80;89.20;;;;;;5137406;27;20043;-74
2020/12/13 08:15:03;;;;;;;14.25;10.30;;;9.80;89.30;;;;;;5137525;27;20023;-74
2020/12/13 08:17:29;;;;;;;14.43;10.70;;;9.80;89.20;;;;;;5136757;27;20019;-73
2020/12/13 08:20:00;;;;;;;13.18;10.40;;;9.90;89.20;;;;;;5136204;27;20022;-74
2020/12/13 08:22:28;;;;;;;12.77;9.70;;;9.90;89.20;;;;;;5137336;27;20152;-74
2020/12/13 08:24:59;;;;;;;13.65;10.38;;;9.90;89.10;;;;;;5137248;27;20028;-74
2020/12/13 08:27:27;;;;;;;14.10;10.07;;;9.90;89.10;;;;;;5136027;27;20072;-74
2020/12/13 08:29:53;;;;;;;13.15;10.13;;;9.90;89.00;;;;;;5137407;27;20470;-74
2020/12/13 08:32:22;;;;;;;12.50;9.98;;;9.90;89.00;;;;;;5137518;27;20030;-74
2020/12/13 08:34:49;;;;;;;12.95;10.05;;;10.00;89.00;;;;;;5135853;27;20027;-74
2020/12/13 08:37:23;;;;;;;14.23;9.90;;;9.90;88.90;;;;;;5135888;27;20042;-74
2020/12/13 08:39:49;;;;;;;14.45;10.30;;;9.90;88.90;;;;;;5136566;27;20049;-74
2020/12/13 08:42:22;;;;;;;15.10;10.52;;;9.90;88.90;;;;;;5138995;27;20023;-73
2020/12/13 08:44:48;;;;;;;;;;;9.90;89.50;;;;;;5139517;27;20478;-73
2020/12/13 08:47:13;;;;;;;12.52;8.93;;;9.90;88.90;;;;;;5157574;27;19910;-73
2020/12/13 08:49:41;;;;;;;13.35;9.68;;;9.90;88.90;;;;;;5157924;27;20450;-74
2020/12/13 08:52:16;;;;;;;12.38;9.55;;;9.90;88.90;;;;;;5157302;27;20034;-73
2020/12/13 08:54:45;;;;;;;14.32;9.60;;;10.00;88.80;;;;;;5138877;27;20030;-73
2020/12/13 08:57:10;;;;;;;12.45;9.27;;;9.90;88.90;;;;;;5138639;27;20026;-73
2020/12/13 08:59:36;;;;;;;11.57;9.38;;;9.90;88.80;;;;;;5157647;27;20418;-74
2020/12/13 09:02:03;;;;;;;11.90;9.57;;;9.90;88.60;;;;;;5157329;27;20033;-74
2020/12/13 09:04:30;;;;;;;12.63;9.48;;;9.80;88.70;;;;;;5138648;27;20037;-74
2020/12/13 09:06:58;;;;;;;12.15;9.43;;;9.90;88.80;;;;;;5138651;27;20367;-74
2020/12/13 09:09:34;;;;;;;12.50;8.85;;;9.80;88.90;;;;;;5137369;27;20396;-73
2020/12/13 09:12:00;;;;;;;11.05;8.15;;;9.90;89.00;;;;;;5138392;27;20051;-74
2020/12/13 09:14:30;;;;;;;9.60;8.38;;;9.90;88.80;;;;;;5157146;27;20041;-73
2020/12/13 09:16:57;;;;;;;9.95;8.27;;;9.90;88.70;;;;;;5157009;27;20015;-73
2020/12/13 09:19:23;;;;;;;9.05;7.75;;;9.90;88.60;;;;;;5138308;27;20015;-74
2020/12/13 09:21:51;;;;;;;10.48;8.60;;;9.80;88.70;;;;;;5156889;27;20423;-74
2020/12/13 09:24:22;;;;;;;10.50;8.43;;;9.80;88.70;;;;;;5156813;27;20025;-75
2020/12/13 09:27:23;;;;;;;10.77;7.63;;;9.80;88.70;;;;;;5138150;27;20031;-73
2020/12/13 09:29:50;;;;;;;13.30;8.95;;;9.80;88.70;;;;;;5055960;28;20039;-73
2020/12/13 09:32:17;;;;;;;10.88;8.50;;;9.80;88.70;;;;;;5072669;28;20040;-73
2020/12/13 09:34:44;;;;;;;13.40;9.43;;;9.80;88.60;;;;;;5072564;28;20032;-74
2020/12/13 09:37:14;;;;;;;12.57;8.73;;;9.70;88.70;;;;;;5055545;28;20400;-74
2020/12/13 09:39:43;;;;;;;12.98;8.70;;;9.70;88.70;;;;;;5072584;28;20522;-73
2020/12/13 09:42:10;;;;;;;12.63;9.68;;;9.70;88.70;;;;;;5055503;28;20037;-73
2020/12/13 09:44:36;;;;;;;14.50;8.77;;;9.70;88.80;;;;;;5055690;28;20081;-73
2020/12/13 09:47:02;;;;;;;11.23;8.98;;;9.70;88.70;;;;;;5072515;28;20457;-74
2020/12/13 09:49:29;;;;;;;11.25;8.93;;;9.70;88.70;;;;;;5072319;28;20131;-74
2020/12/13 09:52:02;;;;;;;15.13;8.75;;;9.70;88.70;;;;;;5055373;28;20577;-73
2020/12/13 09:54:29;;;;;;;14.82;9.63;;;9.80;88.80;;;;;;5055512;28;20032;-74
2020/12/13 09:56:55;;;;;;;12.60;8.68;;;9.80;88.90;;;;;;5055370;28;20056;-74
2020/12/13 09:59:21;;;;;;;12.65;8.57;;;9.80;88.70;;;;;;5072075;28;20029;-74
2020/12/13 10:01:47;;;;;;;13.93;8.68;;;9.80;88.60;;;;;;5055317;28;20035;-73
2020/12/13 10:04:14;;;;;;;13.68;9.38;;;9.80;88.50;;;;;;5055367;28;20091;-75
2020/12/13 10:09:09;;;;;;;13.77;9.75;;;9.90;88.50;;;;;;5156187;27;20027;-74
2020/12/13 10:11:37;;;;;;;18.15;10.57;;;9.80;88.40;;;;;;5137239;27;20534;-74
2020/12/13 10:14:04;;;;;;;13.65;9.95;;;9.90;88.30;;;;;;5155935;27;20037;-74
2020/12/13 10:16:30;;;;;;;13.18;10.48;;;9.90;88.40;;;;;;5137241;27;20075;-74
2020/12/13 10:18:56;;;;;;;18.27;11.43;;;9.90;88.40;;;;;;5155846;27;20470;-74
2020/12/13 10:21:31;;;;;;;12.98;10.52;;;9.90;88.20;;;;;;5137076;27;20018;-74
2020/12/13 10:23:57;;;;;;;15.05;10.85;;;9.90;88.20;;;;;;5137207;27;20464;-74
2020/12/13 10:26:29;;;;;;;19.73;12.32;;;9.90;88.20;;;;;;5136945;27;20026;-74
2020/12/13 10:28:55;;;;;;;19.17;12.10;;;9.90;88.20;;;;;;5136870;27;20025;-74
2020/12/13 10:31:50;;;;;;;17.00;12.15;;;9.90;88.20;;;;;;5136910;27;20423;-75
2020/12/13 10:34:17;;;;;;;18.38;12.38;;;9.90;88.10;;;;;;5119641;27;20030;-74
2020/12/13 10:36:44;;;;;;;24.33;13.40;;;10.00;88.10;;;;;;5155529;27;20050;-73
2020/12/13 10:39:10;;;;;;;20.25;13.65;;;10.00;88.00;;;;;;5155856;27;20014;-73
2020/12/13 10:41:38;;;;;;;19.83;14.02;;;9.90;87.90;;;;;;5136686;27;20035;-74
2020/12/13 10:44:04;;;;;;;21.98;14.80;;;9.90;87.90;;;;;;5155099;27;20143;-74
2020/12/13 10:46:30;;;;;;;19.55;12.65;;;9.90;87.80;;;;;;5136698;27;20425;-73
2020/12/13 10:48:56;;;;;;;17.85;12.93;;;9.90;87.80;;;;;;5136489;27;20054;-73
2020/12/13 10:51:22;;;;;;;20.02;12.70;;;10.00;87.80;;;;;;5136593;27;20019;-73
2020/12/13 10:53:48;;;;;;;22.15;14.82;;;10.00;87.80;;;;;;5155083;27;20078;-73
2020/12/13 10:56:14;;;;;;;21.55;14.75;;;10.00;87.60;;;;;;5136455;27;20039;-74
2020/12/13 10:58:44;;;;;;;21.95;14.20;;;10.10;87.60;;;;;;5155146;27;20023;-73
2020/12/13 11:01:11;;;;;;;20.13;15.65;;;10.20;87.50;;;;;;5136198;27;20071;-74
2020/12/13 11:03:38;;;;;;;20.52;14.63;;;10.20;87.40;;;;;;5154799;27;20058;-74
2020/12/13 11:06:07;;;;;;;22.35;15.10;;;10.20;87.40;;;;;;5136238;27;20130;-73
2020/12/13 11:08:32;;;;;;;17.77;12.80;;;10.20;87.30;;;;;;5154711;27;20054;-73
2020/12/13 11:10:58;;;;;;;16.02;10.95;;;10.30;87.10;;;;;;5136145;27;20022;-73
2020/12/13 11:13:23;;;;;;;16.60;11.13;;;10.30;87.10;;;;;;5135941;27;20019;-74
2020/12/13 11:15:49;;;;;;;15.93;11.45;;;10.20;86.90;;;;;;5136574;27;20063;-74
2020/12/13 11:18:15;;;;;;;15.02;11.02;;;10.30;86.90;;;;;;5136196;27;20300;-74
2020/12/13 11:21:36;;;;;;;16.13;10.65;;;10.30;86.70;;;;;;5155205;27;20029;-74
2020/12/13 11:24:02;;;;;;;15.93;10.10;;;10.30;86.60;;;;;;5154696;27;20167;-75
2020/12/13 11:26:27;;;;;;;16.27;10.43;;;10.40;86.70;;;;;;5135727;27;20026;-74
2020/12/13 11:28:53;;;;;;;14.85;10.18;;;10.40;86.60;;;;;;5135676;27;20071;-73
2020/12/13 11:31:18;;;;;;;16.10;11.15;;;10.50;86.50;;;;;;5135194;27;20414;-74
2020/12/13 11:33:44;;;;;;;14.38;11.45;;;10.50;86.40;;;;;;5135790;27;20061;-74
2020/12/13 11:36:09;;;;;;;15.18;11.23;;;10.50;86.40;;;;;;5135821;27;20040;-75
2020/12/13 11:38:35;;;;;;;15.32;10.38;;;10.50;86.20;;;;;;5135839;27;20019;-74
2020/12/13 11:41:01;;;;;;;14.88;10.57;;;10.50;86.20;;;;;;5135613;27;20047;-73
2020/12/13 11:43:26;;;;;;;13.73;10.68;;;10.60;86.10;;;;;;5154185;27;20038;-74
2020/12/13 11:45:52;;;;;;;12.30;9.27;;;10.60;86.10;;;;;;5154176;27;20052;-73
2020/12/13 11:48:17;;;;;;;13.20;8.50;;;10.60;85.90;;;;;;5154487;27;20031;-75
2020/12/13 11:50:50;;;;;;;11.80;8.00;;;10.60;85.90;;;;;;5135603;27;20466;-74
2020/12/13 11:53:16;;;;;;;11.27;7.32;;;10.60;85.90;;;;;;5136888;27;20148;-75
2020/12/13 11:55:57;;;;;;;11.45;7.53;;;10.60;85.60;;;;;;5137884;27;20091;-75
2020/12/13 11:58:23;;;;;;;9.85;6.90;;;10.60;85.60;;;;;;5138744;27;20105;-74
2020/12/13 12:00:51;;;;;;;9.32;5.90;;;10.60;85.50;;;;;;5156298;27;20152;-75
2020/12/13 12:03:17;;;;;;;12.80;5.60;;;10.60;85.30;;;;;;5155406;27;20500;-75
2020/12/13 12:05:43;;;;;;;8.98;5.40;;;10.60;85.30;;;;;;5135645;27;20019;-75
2020/12/13 12:08:08;;;;;;;10.25;5.53;;;10.60;85.20;;;;;;5135553;27;20459;-75
2020/12/13 12:10:34;;;;;;;7.20;4.82;;;10.60;85.00;;;;;;5154559;27;20023;-75
2020/12/13 12:12:59;;;;;;;7.15;4.78;;;10.60;84.90;;;;;;5155336;27;20053;-74
2020/12/13 12:18:47;;;;;;;6.07;4.15;;;10.60;84.40;;;;;;5154593;27;20128;-76
2020/12/13 12:21:16;;;;;;;9.88;4.25;;;10.50;84.40;;;;;;5154501;27;20039;-75
2020/12/13 12:23:42;;;;;;;7.50;4.03;;;10.40;84.40;;;;;;5154203;27;20041;-75
2020/12/13 12:26:08;;;;;;;5.88;3.30;;;10.40;84.10;;;;;;5154145;27;20385;-75
2020/12/13 12:28:34;;;;;;;5.95;3.70;;;10.30;84.00;;;;;;5154200;27;20480;-75
2020/12/13 12:31:00;;;;;;;10.02;3.80;;;10.30;84.10;;;;;;5135823;27;20442;-75
2020/12/13 12:33:25;;;;;;;6.45;3.67;;;10.30;84.10;;;;;;5135621;27;20427;-75
2020/12/13 12:35:51;;;;;;;8.18;3.50;;;10.30;84.10;;;;;;5135515;27;20117;-75
2020/12/13 12:38:17;;;;;;;5.78;3.35;;;10.30;84.00;;;;;;5135302;27;20434;-75
2020/12/13 12:40:43;;;;;;;5.30;3.35;;;10.30;83.90;;;;;;5153991;27;20046;-76
2020/12/13 12:43:10;;;;;;;8.45;3.55;;;10.30;83.80;;;;;;5136863;27;20030;-75
2020/12/13 12:45:36;;;;;;;6.47;3.10;;;10.20;83.60;;;;;;5139865;27;20117;-75
2020/12/13 12:48:02;;;;;;;5.93;3.10;;;10.20;83.60;;;;;;5159873;27;20109;-74